createdAt,value
2022-12-29T00:01:30.915Z,1.40
2022-12-29T00:03:04.690Z,0.90
2022-12-29T00:04:38.086Z,1.02
2022-12-29T00:06:11.091Z,1.58
2022-12-29T00:07:44.299Z,0.98
2022-12-29T00:09:17.537Z,0.65
2022-12-29T00:10:50.836Z,0.60
2022-12-29T00:12:24.162Z,0.47
2022-12-29T00:14:19.233Z,0.98
2022-12-29T00:15:53.735Z,0.60
2022-12-29T00:17:27.015Z,1.70
2022-12-29T00:18:59.728Z,0.45
2022-12-29T00:20:54.414Z,1.00
2022-12-29T00:22:46.135Z,1.95
2022-12-29T00:24:48.242Z,0.70
2022-12-29T00:26:39.505Z,0.60
2022-12-29T00:28:30.565Z,1.35
2022-12-29T00:30:28.742Z,1.25
2022-12-29T00:32:19.760Z,0.88
2022-12-29T00:34:10.738Z,0.38
2022-12-29T00:35:49.845Z,0.40
2022-12-29T00:37:43.263Z,0.88
2022-12-29T00:39:49.199Z,0.20
2022-12-29T00:41:40.057Z,0.60
2022-12-29T00:43:30.902Z,0.60
2022-12-29T00:45:09.829Z,0.93
2022-12-29T00:46:44.965Z,1.33
2022-12-29T00:48:37.732Z,0.75
2022-12-29T00:50:11.415Z,1.33
2022-12-29T00:51:44.609Z,0.40
2022-12-29T00:53:18.106Z,0.43
2022-12-29T00:54:51.325Z,0.40
2022-12-29T00:56:23.679Z,0.65
2022-12-29T00:57:57.131Z,0.60
2022-12-29T00:59:30.482Z,0.80
2022-12-29T01:01:07.731Z,0.40
2022-12-29T01:02:41.124Z,0.80
2022-12-29T01:04:15.528Z,0.28
2022-12-29T01:05:51.203Z,0.25
2022-12-29T01:07:25.619Z,0.30
2022-12-29T01:09:16.389Z,0.30
2022-12-29T01:11:01.734Z,1.38
2022-12-29T01:12:45.703Z,0.15
2022-12-29T01:14:20.536Z,0.43
2022-12-29T01:15:53.187Z,0.15
2022-12-29T01:17:30.906Z,0.10
2022-12-29T01:19:09.090Z,0.70
2022-12-29T01:20:45.659Z,0.57
2022-12-29T01:22:18.932Z,0.75
2022-12-29T01:23:51.199Z,0.15
2022-12-29T01:25:24.415Z,0.50
2022-12-29T01:26:56.833Z,0.30
2022-12-29T01:28:30.012Z,0.88
2022-12-29T01:30:03.237Z,1.17
2022-12-29T01:31:42.411Z,0.32
2022-12-29T01:33:17.381Z,0.90
2022-12-29T01:34:51.638Z,0.80
2022-12-29T01:36:25.752Z,0.30
2022-12-29T01:37:59.565Z,0.50
2022-12-29T01:39:32.832Z,0.32
2022-12-29T01:41:06.969Z,0.20
2022-12-29T01:42:40.706Z,0.60
2022-12-29T01:44:54.947Z,0.10
2022-12-29T01:46:38.297Z,0.55
2022-12-29T01:48:12.420Z,0.73
2022-12-29T01:49:47.243Z,0.65
2022-12-29T01:53:02.004Z,0.10
2022-12-29T01:54:42.166Z,0.20
2022-12-29T01:56:22.213Z,0.43
2022-12-29T01:58:05.774Z,0.03
2022-12-29T01:59:48.123Z,0.20
2022-12-29T02:01:23.502Z,0.22
2022-12-29T02:02:57.301Z,0.43
2022-12-29T02:04:34.486Z,0.20
2022-12-29T02:06:19.432Z,0.20
2022-12-29T02:07:54.910Z,0.20
2022-12-29T02:09:28.638Z,0.40
2022-12-29T02:11:02.133Z,0.20
2022-12-29T02:12:35.976Z,0.38
2022-12-29T02:14:12.158Z,0.10
2022-12-29T02:16:03.710Z,0.40
2022-12-29T02:18:01.562Z,0.30
2022-12-29T02:20:39.784Z,0.25
2022-12-29T02:22:26.801Z,0.32
2022-12-29T02:24:51.773Z,0.20
2022-12-29T02:26:51.751Z,0.10
2022-12-29T02:29:21.621Z,0.20
2022-12-29T02:31:11.682Z,0.25
2022-12-29T02:32:56.156Z,0.20
2022-12-29T02:34:47.361Z,0.22
2022-12-29T02:36:35.683Z,0.32
2022-12-29T02:38:21.741Z,0.30
2022-12-29T02:40:07.832Z,0.22
2022-12-29T02:41:56.198Z,0.28
2022-12-29T02:43:41.130Z,0.25
2022-12-29T02:45:23.496Z,0.00
2022-12-29T02:47:07.216Z,0.85
2022-12-29T02:48:47.230Z,1.63
2022-12-29T02:50:28.566Z,0.50
2022-12-29T02:52:07.906Z,0.30
2022-12-29T02:54:05.761Z,0.30
2022-12-29T02:55:39.747Z,0.43
2022-12-29T02:57:29.066Z,0.10
2022-12-29T02:59:02.500Z,0.30
2022-12-29T03:00:43.091Z,0.10
2022-12-29T03:02:52.898Z,0.60
2022-12-29T03:04:41.556Z,0.45
2022-12-29T03:06:37.395Z,0.50
2022-12-29T03:08:24.994Z,0.20
2022-12-29T03:10:09.714Z,0.30
2022-12-29T03:12:11.360Z,0.35
2022-12-29T03:14:09.261Z,0.47
2022-12-29T03:16:04.801Z,0.90
2022-12-29T03:17:52.572Z,0.60
2022-12-29T03:19:31.386Z,0.25
2022-12-29T03:21:11.555Z,0.93
2022-12-29T03:22:50.450Z,0.50
2022-12-29T03:24:33.709Z,0.22
2022-12-29T03:26:12.892Z,0.73
2022-12-29T03:27:52.397Z,0.20
2022-12-29T03:29:29.287Z,0.40
2022-12-29T03:31:06.443Z,0.20
2022-12-29T03:32:49.130Z,0.60
2022-12-29T03:34:25.771Z,0.43
2022-12-29T03:36:05.340Z,1.30
2022-12-29T03:37:43.357Z,0.73
2022-12-29T03:39:18.609Z,0.50
2022-12-29T03:40:58.662Z,0.68
2022-12-29T03:42:38.410Z,0.80
2022-12-29T03:44:13.116Z,1.48
2022-12-29T03:47:18.769Z,0.22
2022-12-29T03:48:55.156Z,1.17
2022-12-29T03:50:28.511Z,0.50
2022-12-29T03:52:00.896Z,1.02
2022-12-29T03:53:35.563Z,0.43
2022-12-29T03:55:10.812Z,0.22
2022-12-29T03:56:44.364Z,1.02
2022-12-29T03:58:18.473Z,0.47
2022-12-29T04:00:02.751Z,1.25
2022-12-29T04:01:56.907Z,0.68
2022-12-29T04:03:30.416Z,0.30
2022-12-29T04:05:03.886Z,0.63
2022-12-29T04:06:37.228Z,0.17
2022-12-29T04:08:14.118Z,0.47
2022-12-29T04:09:47.579Z,0.55
2022-12-29T04:11:31.364Z,1.10
2022-12-29T04:13:07.012Z,0.28
2022-12-29T04:14:40.761Z,1.25
2022-12-29T04:16:14.414Z,0.70
2022-12-29T04:17:49.929Z,0.50
2022-12-29T04:19:23.702Z,0.60
2022-12-29T04:21:03.459Z,0.80
2022-12-29T04:22:39.590Z,1.20
2022-12-29T04:24:13.921Z,1.20
2022-12-29T04:25:49.201Z,0.22
2022-12-29T04:27:22.895Z,0.20
2022-12-29T04:29:11.377Z,0.28
2022-12-29T04:30:56.226Z,0.52
2022-12-29T04:32:32.615Z,0.73
2022-12-29T04:34:07.315Z,0.50
2022-12-29T04:37:13.220Z,0.30
2022-12-29T04:38:46.779Z,0.35
2022-12-29T04:40:20.708Z,0.38
2022-12-29T04:41:54.382Z,1.67
2022-12-29T04:43:29.145Z,0.88
2022-12-29T04:45:19.667Z,0.40
2022-12-29T04:46:59.254Z,0.90
2022-12-29T04:48:46.176Z,0.73
2022-12-29T04:50:33.991Z,0.22
2022-12-29T04:52:20.330Z,1.30
2022-12-29T04:53:53.601Z,0.50
2022-12-29T04:55:25.977Z,0.43
2022-12-29T04:56:59.320Z,0.30
2022-12-29T04:58:32.736Z,0.40
2022-12-29T05:00:09.707Z,0.43
2022-12-29T05:01:44.356Z,1.80
2022-12-29T05:03:17.382Z,0.55
2022-12-29T05:04:52.100Z,1.95
2022-12-29T05:06:27.530Z,0.30
2022-12-29T05:08:00.862Z,1.20
2022-12-29T05:09:34.096Z,0.60
2022-12-29T05:11:08.059Z,0.20
2022-12-29T05:12:41.586Z,1.00
2022-12-29T05:14:14.808Z,1.48
2022-12-29T05:15:52.797Z,0.40
2022-12-29T05:17:27.221Z,0.35
2022-12-29T05:19:00.626Z,0.93
2022-12-29T05:20:33.907Z,0.20
2022-12-29T05:22:08.739Z,0.50
2022-12-29T05:23:41.956Z,0.47
2022-12-29T05:25:15.196Z,0.52
2022-12-29T05:27:00.842Z,1.80
2022-12-29T05:28:44.352Z,0.40
2022-12-29T05:30:20.558Z,3.22
2022-12-29T05:31:53.999Z,0.40
2022-12-29T05:33:28.076Z,0.55
2022-12-29T05:35:01.850Z,0.55
2022-12-29T05:36:38.240Z,0.63
2022-12-29T05:38:15.187Z,0.43
2022-12-29T05:39:48.149Z,0.47
2022-12-29T05:41:21.711Z,0.55
2022-12-29T05:43:14.866Z,0.30
2022-12-29T05:45:10.884Z,2.05
2022-12-29T05:46:58.361Z,1.83
2022-12-29T05:48:51.574Z,0.20
2022-12-29T05:50:32.359Z,0.47
2022-12-29T05:52:15.281Z,0.68
2022-12-29T05:53:49.962Z,0.95
2022-12-29T05:55:24.062Z,0.65
2022-12-29T05:56:59.969Z,1.13
2022-12-29T05:58:34.067Z,0.68
2022-12-29T06:00:10.271Z,1.38
2022-12-29T06:01:53.856Z,0.35
2022-12-29T06:03:27.351Z,0.60
2022-12-29T06:05:01.117Z,0.68
2022-12-29T06:06:35.296Z,0.28
2022-12-29T06:08:09.845Z,1.92
2022-12-29T06:09:44.513Z,0.65
2022-12-29T06:11:17.802Z,2.05
2022-12-29T06:12:57.172Z,0.77
2022-12-29T06:14:30.761Z,0.35
2022-12-29T06:17:40.031Z,0.47
2022-12-29T06:19:13.517Z,0.40
2022-12-29T06:20:47.765Z,1.08
2022-12-29T06:22:22.861Z,0.50
2022-12-29T06:23:56.499Z,0.55
2022-12-29T06:25:33.322Z,0.85
2022-12-29T06:27:07.109Z,0.73
2022-12-29T06:28:40.736Z,1.45
2022-12-29T06:30:15.850Z,1.33
2022-12-29T06:31:52.033Z,0.85
2022-12-29T06:33:25.382Z,0.43
2022-12-29T06:35:00.255Z,0.60
2022-12-29T06:36:33.545Z,0.50
2022-12-29T06:38:07.536Z,0.57
2022-12-29T06:39:40.907Z,0.38
2022-12-29T06:41:19.547Z,0.30
2022-12-29T06:43:12.879Z,0.30
2022-12-29T06:45:01.613Z,0.52
2022-12-29T06:46:35.279Z,0.43
2022-12-29T06:48:09.504Z,1.75
2022-12-29T06:49:43.059Z,0.63
2022-12-29T06:51:16.343Z,0.55
2022-12-29T06:52:49.684Z,0.63
2022-12-29T06:54:23.023Z,0.85
2022-12-29T06:55:57.550Z,0.20
2022-12-29T06:57:30.884Z,0.50
2022-12-29T06:59:04.342Z,0.20
2022-12-29T07:00:39.148Z,0.88
2022-12-29T07:03:46.832Z,0.63
2022-12-29T07:05:22.030Z,0.30
2022-12-29T07:06:57.083Z,1.95
2022-12-29T07:08:30.421Z,0.30
2022-12-29T07:10:04.699Z,1.00
2022-12-29T07:11:39.054Z,0.43
2022-12-29T07:13:12.522Z,0.82
2022-12-29T07:14:49.606Z,0.75
2022-12-29T07:16:24.374Z,0.73
2022-12-29T07:19:30.997Z,1.58
2022-12-29T07:21:04.991Z,1.38
2022-12-29T07:22:39.526Z,1.70
2022-12-29T07:24:12.789Z,1.25
2022-12-29T07:25:45.982Z,0.52
2022-12-29T07:27:19.509Z,0.90
2022-12-29T07:28:53.619Z,1.00
2022-12-29T07:30:26.839Z,0.40
2022-12-29T07:32:01.460Z,0.98
2022-12-29T07:33:36.076Z,0.35
2022-12-29T07:35:10.694Z,0.38
2022-12-29T07:36:43.892Z,0.70
2022-12-29T07:38:18.560Z,0.82
2022-12-29T07:39:51.942Z,0.50
2022-12-29T07:41:25.200Z,0.85
2022-12-29T07:42:58.380Z,1.40
2022-12-29T07:44:39.518Z,1.27
2022-12-29T07:46:54.623Z,1.15
2022-12-29T07:48:27.782Z,0.75
2022-12-29T07:50:01.245Z,1.15
2022-12-29T07:51:33.644Z,0.38
2022-12-29T07:53:06.885Z,1.95
2022-12-29T07:54:40.098Z,0.75
2022-12-29T07:56:13.377Z,0.80
2022-12-29T07:57:46.936Z,0.75
2022-12-29T07:59:20.504Z,1.65
2022-12-29T08:00:56.194Z,1.05
2022-12-29T08:02:30.688Z,0.50
2022-12-29T08:04:06.943Z,0.80
2022-12-29T08:05:40.581Z,0.50
2022-12-29T08:07:13.942Z,1.02
2022-12-29T08:08:47.100Z,0.50
2022-12-29T08:10:20.551Z,0.40
2022-12-29T08:11:53.936Z,1.23
2022-12-29T08:13:27.253Z,0.50
2022-12-29T08:15:07.519Z,1.45
2022-12-29T08:16:41.989Z,1.60
2022-12-29T08:18:16.153Z,0.90
2022-12-29T08:19:50.883Z,1.02
2022-12-29T08:21:24.970Z,1.25
2022-12-29T08:22:58.193Z,0.45
2022-12-29T08:24:31.470Z,0.85
2022-12-29T08:26:07.173Z,0.73
2022-12-29T08:27:40.604Z,1.20
2022-12-29T08:29:16.772Z,1.30
2022-12-29T08:30:50.146Z,2.08
2022-12-29T08:32:23.888Z,0.63
2022-12-29T08:33:57.413Z,0.75
2022-12-29T08:35:32.102Z,0.98
2022-12-29T08:37:05.578Z,1.67
2022-12-29T08:38:38.890Z,1.85
2022-12-29T08:40:12.969Z,1.00
2022-12-29T08:41:46.465Z,1.00
2022-12-29T08:43:20.259Z,3.25
2022-12-29T08:44:53.704Z,1.50
2022-12-29T08:46:27.062Z,0.85
2022-12-29T08:48:00.455Z,1.40
2022-12-29T08:49:34.219Z,2.03
2022-12-29T08:51:09.349Z,1.65
2022-12-29T08:52:42.568Z,1.58
2022-12-29T08:54:15.971Z,1.52
2022-12-29T08:56:02.403Z,1.33
2022-12-29T08:57:42.283Z,1.60
2022-12-29T08:59:22.320Z,1.58
2022-12-29T09:00:56.557Z,2.75
2022-12-29T09:02:29.962Z,2.22
2022-12-29T09:04:14.783Z,2.60
2022-12-29T09:05:51.077Z,2.83
2022-12-29T09:07:26.522Z,1.25
2022-12-29T09:08:59.853Z,1.33
2022-12-29T09:10:33.184Z,1.73
2022-12-29T09:12:21.502Z,1.10
2022-12-29T09:13:55.767Z,2.10
2022-12-29T09:15:29.161Z,1.80
2022-12-29T09:17:20.032Z,1.02
2022-12-29T09:18:53.503Z,2.00
2022-12-29T09:20:26.950Z,1.60
2022-12-29T09:22:00.224Z,1.25
2022-12-29T09:23:36.079Z,1.92
2022-12-29T09:25:11.050Z,1.65
2022-12-29T09:26:47.084Z,1.83
2022-12-29T09:28:20.730Z,1.67
2022-12-29T09:29:54.130Z,2.55
2022-12-29T09:31:27.398Z,1.70
2022-12-29T09:33:01.957Z,1.58
2022-12-29T09:34:36.237Z,2.33
2022-12-29T09:36:11.169Z,1.92
2022-12-29T09:37:45.298Z,3.20
2022-12-29T09:39:20.096Z,2.80
2022-12-29T09:40:58.143Z,1.33
2022-12-29T09:42:40.755Z,1.23
2022-12-29T09:44:22.858Z,2.08
2022-12-29T09:46:10.350Z,2.03
2022-12-29T09:47:47.054Z,1.48
2022-12-29T09:49:29.686Z,2.05
2022-12-29T09:51:11.252Z,3.53
2022-12-29T09:52:51.289Z,2.10
2022-12-29T09:55:00.917Z,2.05
2022-12-29T09:56:42.188Z,1.90
2022-12-29T09:58:24.982Z,2.67
2022-12-29T10:00:05.321Z,1.90
2022-12-29T10:02:35.144Z,1.13
2022-12-29T10:04:09.345Z,2.40
2022-12-29T10:05:54.634Z,3.05
2022-12-29T10:07:40.647Z,1.90
2022-12-29T10:09:23.522Z,1.08
2022-12-29T10:11:01.506Z,2.92
2022-12-29T10:12:57.025Z,2.90
2022-12-29T10:14:53.881Z,3.08
2022-12-29T10:16:41.101Z,4.28
2022-12-29T10:18:39.966Z,2.88
2022-12-29T10:20:33.425Z,2.92
2022-12-29T10:22:26.371Z,2.67
2022-12-29T10:24:06.542Z,2.95
2022-12-29T10:25:43.496Z,1.92
2022-12-29T10:27:19.344Z,0.55
2022-12-29T10:28:58.766Z,1.80
2022-12-29T10:30:35.309Z,4.00
2022-12-29T10:32:21.363Z,1.95
2022-12-29T10:34:04.023Z,1.98
2022-12-29T10:35:41.523Z,4.18
2022-12-29T10:37:33.996Z,1.75
2022-12-29T10:39:18.643Z,2.20
2022-12-29T10:40:59.429Z,4.10
2022-12-29T10:42:41.643Z,2.85
2022-12-29T10:44:19.888Z,3.00
2022-12-29T10:45:56.485Z,2.33
2022-12-29T10:47:36.154Z,2.47
2022-12-29T10:49:21.740Z,2.10
2022-12-29T10:51:02.173Z,2.25
2022-12-29T10:52:39.951Z,3.40
2022-12-29T10:54:21.812Z,1.17
2022-12-29T10:55:57.572Z,1.88
2022-12-29T10:57:36.080Z,2.13
2022-12-29T10:59:21.132Z,2.75
2022-12-29T11:00:56.375Z,0.93
2022-12-29T11:03:10.537Z,2.78
2022-12-29T11:04:58.253Z,2.67
2022-12-29T11:06:32.961Z,1.30
2022-12-29T11:08:14.159Z,2.40
2022-12-29T11:09:49.016Z,1.65
2022-12-29T11:11:28.278Z,2.88
2022-12-29T11:13:04.706Z,1.08
2022-12-29T11:14:38.999Z,3.50
2022-12-29T11:16:14.647Z,3.42
2022-12-29T11:17:50.728Z,2.13
2022-12-29T11:19:26.720Z,1.70
2022-12-29T11:21:04.084Z,2.92
2022-12-29T11:22:37.743Z,2.58
2022-12-29T11:24:24.121Z,3.63
2022-12-29T11:27:59.006Z,3.22
2022-12-29T11:29:40.838Z,2.45
2022-12-29T11:31:19.685Z,1.42
2022-12-29T11:32:54.911Z,3.03
2022-12-29T11:34:34.445Z,3.25
2022-12-29T11:36:15.250Z,2.88
2022-12-29T11:37:57.744Z,2.58
2022-12-29T11:39:38.784Z,3.97
2022-12-29T11:41:21.077Z,2.90
2022-12-29T11:42:58.451Z,2.15
2022-12-29T11:44:39.228Z,2.75
2022-12-29T11:46:20.706Z,1.55
2022-12-29T11:47:58.409Z,3.22
2022-12-29T11:49:31.838Z,2.28
2022-12-29T11:51:05.756Z,3.95
2022-12-29T11:52:41.973Z,2.45
2022-12-29T11:54:23.616Z,2.38
2022-12-29T11:55:59.298Z,3.67
2022-12-29T11:57:35.451Z,1.67
2022-12-29T11:59:38.891Z,1.80
2022-12-29T12:03:01.037Z,2.00
2022-12-29T12:04:39.845Z,2.60
2022-12-29T12:06:21.881Z,2.13
2022-12-29T12:08:07.420Z,1.65
2022-12-29T12:09:52.574Z,2.72
2022-12-29T12:11:37.180Z,3.33
2022-12-29T12:13:24.655Z,2.42
2022-12-29T12:15:01.518Z,1.48
2022-12-29T12:16:52.719Z,4.07
2022-12-29T12:18:40.242Z,2.33
2022-12-29T12:20:23.877Z,2.95
2022-12-29T12:22:09.977Z,4.57
2022-12-29T12:24:16.013Z,4.20
2022-12-29T12:26:00.947Z,4.05
2022-12-29T12:27:43.121Z,3.90
2022-12-29T12:29:26.846Z,2.55
2022-12-29T12:31:03.439Z,4.05
2022-12-29T12:32:48.690Z,4.50
2022-12-29T12:34:29.904Z,4.47
2022-12-29T12:36:29.492Z,2.00
2022-12-29T12:38:22.222Z,5.70
2022-12-29T12:40:21.743Z,3.90
2022-12-29T12:42:15.664Z,2.85
2022-12-29T12:43:55.523Z,5.18
2022-12-29T12:45:46.114Z,7.75
2022-12-29T12:47:48.745Z,4.55
2022-12-29T12:50:07.812Z,4.45
2022-12-29T12:52:02.944Z,11.93
2022-12-29T12:53:58.943Z,10.75
2022-12-29T12:55:52.965Z,6.57
2022-12-29T12:57:45.402Z,11.65
2022-12-29T12:59:37.027Z,15.25
2022-12-29T13:01:35.412Z,5.20
2022-12-29T13:03:19.238Z,15.32
2022-12-29T13:05:27.116Z,6.40
2022-12-29T13:07:16.405Z,4.47
2022-12-29T13:09:38.549Z,4.03
2022-12-29T13:11:27.014Z,4.88
2022-12-29T13:13:36.614Z,23.35
2022-12-29T13:17:16.440Z,13.32
2022-12-29T13:18:59.729Z,4.00
2022-12-29T13:20:44.782Z,8.35
2022-12-29T13:22:26.773Z,8.10
2022-12-29T13:24:18.428Z,6.97
2022-12-29T13:26:06.807Z,3.97
2022-12-29T13:27:53.495Z,6.35
2022-12-29T13:29:38.089Z,5.25
2022-12-29T13:31:20.405Z,6.40
2022-12-29T13:33:06.877Z,6.80
2022-12-29T13:34:53.111Z,4.80
2022-12-29T13:36:32.698Z,3.72
2022-12-29T13:38:13.375Z,3.55
2022-12-29T13:41:35.770Z,2.33
2022-12-29T13:43:11.637Z,2.90
2022-12-29T13:44:50.728Z,3.20
2022-12-29T13:46:42.871Z,1.58
2022-12-29T13:48:23.508Z,3.97
2022-12-29T13:50:00.408Z,7.63
2022-12-29T13:51:36.336Z,22.35
2022-12-29T13:53:21.510Z,6.95
2022-12-29T13:55:08.485Z,5.57
2022-12-29T13:56:48.650Z,6.82
2022-12-29T13:58:37.094Z,4.28
2022-12-29T14:00:18.697Z,27.40
2022-12-29T14:02:03.950Z,9.27
2022-12-29T14:03:51.676Z,18.08
2022-12-29T14:05:34.323Z,8.75
2022-12-29T14:07:16.632Z,5.80
2022-12-29T14:08:50.970Z,3.40
2022-12-29T14:10:36.209Z,3.15
2022-12-29T14:12:31.996Z,4.63
2022-12-29T14:14:22.987Z,8.75
2022-12-29T14:15:59.699Z,3.60
2022-12-29T14:17:34.520Z,2.67
2022-12-29T14:19:17.257Z,3.40
2022-12-29T14:20:57.767Z,1.48
2022-12-29T14:22:33.505Z,2.65
2022-12-29T14:24:42.699Z,0.95
2022-12-29T14:26:34.421Z,1.98
2022-12-29T14:28:24.766Z,1.85
2022-12-29T14:29:59.311Z,1.10
2022-12-29T14:31:41.767Z,2.67
2022-12-29T14:33:18.426Z,5.07
2022-12-29T14:34:58.058Z,1.65
2022-12-29T14:36:39.164Z,1.50
2022-12-29T14:38:20.732Z,1.67
2022-12-29T14:40:07.983Z,1.90
2022-12-29T14:41:42.158Z,1.98
2022-12-29T14:43:22.057Z,3.17
2022-12-29T14:45:07.532Z,3.40
2022-12-29T14:47:03.096Z,3.05
2022-12-29T14:48:44.596Z,2.97
2022-12-29T14:50:24.095Z,4.32
2022-12-29T14:52:14.158Z,1.38
2022-12-29T14:53:52.728Z,2.65
2022-12-29T14:55:40.875Z,2.95
2022-12-29T14:57:24.261Z,3.15
2022-12-29T14:59:02.853Z,1.48
2022-12-29T15:00:39.023Z,2.15
2022-12-29T15:02:19.333Z,2.83
2022-12-29T15:03:58.418Z,2.63
2022-12-29T15:05:43.553Z,2.38
2022-12-29T15:07:20.580Z,2.22
2022-12-29T15:09:05.456Z,1.00
2022-12-29T15:10:46.921Z,2.08
2022-12-29T15:12:32.012Z,2.50
2022-12-29T15:14:05.299Z,2.72
2022-12-29T15:15:40.676Z,0.90
2022-12-29T15:17:28.152Z,4.10
2022-12-29T15:19:01.788Z,2.10
2022-12-29T15:20:34.313Z,1.92
2022-12-29T15:22:10.204Z,1.48
2022-12-29T15:23:46.749Z,1.92
2022-12-29T15:25:20.652Z,1.92
2022-12-29T15:26:56.394Z,0.82
2022-12-29T15:28:39.920Z,1.73
2022-12-29T15:30:18.167Z,2.42
2022-12-29T15:31:53.143Z,1.67
2022-12-29T15:33:29.681Z,1.65
2022-12-29T15:35:26.098Z,1.67
2022-12-29T15:37:00.376Z,2.17
2022-12-29T15:38:40.178Z,2.75
2022-12-29T15:40:27.043Z,1.33
2022-12-29T15:42:12.147Z,1.40
2022-12-29T15:44:00.970Z,2.83
2022-12-29T15:45:37.415Z,1.08
2022-12-29T15:47:20.064Z,1.90
2022-12-29T15:48:53.448Z,2.33
2022-12-29T15:50:31.119Z,1.15
2022-12-29T15:52:09.958Z,3.15
2022-12-29T15:53:43.257Z,2.70
2022-12-29T15:55:27.732Z,2.75
2022-12-29T15:57:00.972Z,1.02
2022-12-29T15:58:45.403Z,1.63
2022-12-29T16:00:27.270Z,2.35
2022-12-29T16:02:10.315Z,2.60
2022-12-29T16:03:48.156Z,3.05
2022-12-29T16:05:22.077Z,2.30
2022-12-29T16:06:59.567Z,2.90
2022-12-29T16:08:38.757Z,1.80
2022-12-29T16:10:28.480Z,3.15
2022-12-29T16:12:06.887Z,4.00
2022-12-29T16:13:42.921Z,2.92
2022-12-29T16:15:16.972Z,3.22
2022-12-29T16:16:52.623Z,1.27
2022-12-29T16:18:30.388Z,1.23
2022-12-29T16:20:18.591Z,0.75
2022-12-29T16:21:53.132Z,3.58
2022-12-29T16:23:30.476Z,3.15
2022-12-29T16:25:12.725Z,5.20
2022-12-29T16:26:51.516Z,3.28
2022-12-29T16:28:38.500Z,2.03
2022-12-29T16:30:27.931Z,3.20
2022-12-29T16:32:24.443Z,1.63
2022-12-29T16:33:58.428Z,2.03
2022-12-29T16:35:47.870Z,2.35
2022-12-29T16:37:33.356Z,2.20
2022-12-29T16:39:32.019Z,3.22
2022-12-29T16:41:05.503Z,4.75
2022-12-29T16:42:52.322Z,2.63
2022-12-29T16:44:28.885Z,4.53
2022-12-29T16:46:26.835Z,2.80
2022-12-29T16:48:21.359Z,3.13
2022-12-29T16:50:01.622Z,2.33
2022-12-29T16:51:38.920Z,4.20
2022-12-29T16:53:23.481Z,3.17
2022-12-29T16:55:01.898Z,2.15
2022-12-29T16:56:39.607Z,3.08
2022-12-29T16:58:22.121Z,2.97
2022-12-29T16:59:59.740Z,0.88
2022-12-29T17:01:37.084Z,2.92
2022-12-29T17:03:13.431Z,3.33
2022-12-29T17:04:50.728Z,5.10
2022-12-29T17:06:25.148Z,3.55
2022-12-29T17:08:01.618Z,2.60
2022-12-29T17:09:34.854Z,6.78
2022-12-29T17:11:42.085Z,2.45
2022-12-29T17:13:15.508Z,3.47
2022-12-29T17:14:53.825Z,5.38
2022-12-29T17:16:26.416Z,2.28
2022-12-29T17:18:02.065Z,2.78
2022-12-29T17:19:38.415Z,3.60
2022-12-29T17:21:11.523Z,3.38
2022-12-29T17:22:45.627Z,3.10
2022-12-29T17:24:21.712Z,2.65
2022-12-29T17:25:56.117Z,3.70
2022-12-29T17:27:35.313Z,4.90
2022-12-29T17:29:08.513Z,3.55
2022-12-29T17:30:42.777Z,4.30
2022-12-29T17:32:16.277Z,2.53
2022-12-29T17:33:50.022Z,2.38
2022-12-29T17:35:24.088Z,3.78
2022-12-29T17:36:57.601Z,2.97
2022-12-29T17:38:33.692Z,3.65
2022-12-29T17:40:15.713Z,3.05
2022-12-29T17:41:49.815Z,2.90
2022-12-29T17:43:23.567Z,3.15
2022-12-29T17:44:57.177Z,3.78
2022-12-29T17:46:31.173Z,3.05
2022-12-29T17:48:12.541Z,2.42
2022-12-29T17:49:46.502Z,4.20
2022-12-29T17:51:21.578Z,3.75
2022-12-29T17:53:00.943Z,3.42
2022-12-29T17:54:35.912Z,6.50
2022-12-29T17:56:11.654Z,3.83
2022-12-29T17:57:45.569Z,6.00
2022-12-29T17:59:20.578Z,3.33
2022-12-29T18:00:56.669Z,2.10
2022-12-29T18:02:33.222Z,3.97
2022-12-29T18:04:06.738Z,3.70
2022-12-29T18:05:40.536Z,5.57
2022-12-29T18:07:13.892Z,3.88
2022-12-29T18:08:47.325Z,4.32
2022-12-29T18:10:21.275Z,5.55
2022-12-29T18:11:55.748Z,7.13
2022-12-29T18:13:41.884Z,6.85
2022-12-29T18:15:22.933Z,4.25
2022-12-29T18:16:56.415Z,4.13
2022-12-29T18:18:29.774Z,4.40
2022-12-29T18:20:03.102Z,4.03
2022-12-29T18:21:37.250Z,4.13
2022-12-29T18:23:20.352Z,4.00
2022-12-29T18:24:53.817Z,4.72
2022-12-29T18:26:32.523Z,3.72
2022-12-29T18:28:07.372Z,3.25
2022-12-29T18:31:20.829Z,2.90
2022-12-29T18:32:54.501Z,4.22
2022-12-29T18:34:27.869Z,6.07
2022-12-29T18:36:04.913Z,3.28
2022-12-29T18:37:38.593Z,3.67
2022-12-29T18:39:12.853Z,5.90
2022-12-29T18:40:51.466Z,4.68
2022-12-29T18:44:00.480Z,5.13
2022-12-29T18:45:35.206Z,4.80
2022-12-29T18:47:09.099Z,3.05
2022-12-29T18:48:43.133Z,5.15
2022-12-29T18:50:18.310Z,4.75
2022-12-29T18:51:54.932Z,3.10
2022-12-29T18:53:30.461Z,5.13
2022-12-29T18:55:04.131Z,1.75
2022-12-29T18:56:37.711Z,4.25
2022-12-29T18:58:11.380Z,5.95
2022-12-29T18:59:46.288Z,4.75
2022-12-29T19:01:23.044Z,3.13
2022-12-29T19:02:56.474Z,3.80
2022-12-29T19:04:29.757Z,3.42
2022-12-29T19:06:03.032Z,5.25
2022-12-29T19:07:36.266Z,4.15
2022-12-29T19:09:10.112Z,2.97
2022-12-29T19:10:44.920Z,4.20
2022-12-29T19:12:22.247Z,3.58
2022-12-29T19:13:58.498Z,4.22
2022-12-29T19:15:37.743Z,3.63
2022-12-29T19:17:13.060Z,4.32
2022-12-29T19:18:53.232Z,4.20
2022-12-29T19:20:36.166Z,2.67
2022-12-29T19:22:10.558Z,3.67
2022-12-29T19:23:45.042Z,4.72
2022-12-29T19:25:20.339Z,3.70
2022-12-29T19:26:53.622Z,3.72
2022-12-29T19:28:29.547Z,3.65
2022-12-29T19:30:04.448Z,4.78
2022-12-29T19:31:40.251Z,5.18
2022-12-29T19:33:13.801Z,4.85
2022-12-29T19:34:48.739Z,5.63
2022-12-29T19:37:56.462Z,4.72
2022-12-29T19:39:30.300Z,4.43
2022-12-29T19:41:08.682Z,5.18
2022-12-29T19:42:42.025Z,3.58
2022-12-29T19:44:17.187Z,8.20
2022-12-29T19:45:51.284Z,5.32
2022-12-29T19:47:31.589Z,6.43
2022-12-29T19:50:38.747Z,5.18
2022-12-29T19:52:12.098Z,7.38
2022-12-29T19:53:45.934Z,4.60
2022-12-29T19:55:19.297Z,3.65
2022-12-29T19:56:52.503Z,3.72
2022-12-29T19:58:25.705Z,4.47
2022-12-29T19:59:59.356Z,2.80
2022-12-29T20:01:32.932Z,2.75
2022-12-29T20:03:07.779Z,4.10
2022-12-29T20:06:15.467Z,5.70
2022-12-29T20:07:48.771Z,3.47
2022-12-29T20:09:22.379Z,5.78
2022-12-29T20:11:02.583Z,3.58
2022-12-29T20:12:37.741Z,4.85
2022-12-29T20:14:10.947Z,4.18
2022-12-29T20:15:45.010Z,6.65
2022-12-29T20:17:27.334Z,4.50
2022-12-29T20:19:12.950Z,6.43
2022-12-29T20:20:47.101Z,7.38
2022-12-29T20:22:20.500Z,4.07
2022-12-29T20:23:56.506Z,4.28
2022-12-29T20:25:47.336Z,4.47
2022-12-29T20:27:20.832Z,2.95
2022-12-29T20:28:57.041Z,6.97
2022-12-29T20:30:30.148Z,4.72
2022-12-29T20:32:11.209Z,3.30
2022-12-29T20:33:44.523Z,7.18
2022-12-29T20:35:19.340Z,4.53
2022-12-29T20:36:53.600Z,4.25
2022-12-29T20:38:26.923Z,3.00
2022-12-29T20:40:00.234Z,4.30
2022-12-29T20:41:34.114Z,5.68
2022-12-29T20:43:07.597Z,5.70
2022-12-29T20:44:40.941Z,3.72
2022-12-29T20:46:20.530Z,3.95
2022-12-29T20:47:54.709Z,5.72
2022-12-29T20:49:29.693Z,5.80
2022-12-29T20:51:05.005Z,6.05
2022-12-29T20:52:38.196Z,4.10
2022-12-29T20:54:12.701Z,3.15
2022-12-29T20:55:46.201Z,6.15
2022-12-29T20:57:19.658Z,4.43
2022-12-29T20:59:26.431Z,4.30
2022-12-29T21:00:47.387Z,5.70
2022-12-29T21:02:22.919Z,5.97
2022-12-29T21:03:56.379Z,5.30
2022-12-29T21:05:30.215Z,5.03
2022-12-29T21:07:04.710Z,6.15
2022-12-29T21:08:38.650Z,6.18
2022-12-29T21:10:12.476Z,5.10
2022-12-29T21:11:46.433Z,6.10
2022-12-29T21:13:20.816Z,4.38
2022-12-29T21:14:53.975Z,4.25
2022-12-29T21:16:27.780Z,3.25
2022-12-29T21:18:01.083Z,3.78
2022-12-29T21:19:34.198Z,5.50
2022-12-29T21:21:10.256Z,4.45
2022-12-29T21:22:44.839Z,6.53
2022-12-29T21:24:19.680Z,6.45
2022-12-29T21:25:52.944Z,6.95
2022-12-29T21:27:26.270Z,4.82
2022-12-29T21:28:59.525Z,4.25
2022-12-29T21:30:32.930Z,4.20
2022-12-29T21:32:07.201Z,6.97
2022-12-29T21:33:40.963Z,5.10
2022-12-29T21:35:14.961Z,6.32
2022-12-29T21:36:48.369Z,3.95
2022-12-29T21:38:23.321Z,6.07
2022-12-29T21:39:57.421Z,4.03
2022-12-29T21:41:31.106Z,5.40
2022-12-29T21:43:04.903Z,3.65
2022-12-29T21:44:56.289Z,3.53
2022-12-29T21:46:29.813Z,5.07
2022-12-29T21:48:24.928Z,3.30
2022-12-29T21:49:58.212Z,4.03
2022-12-29T21:51:49.540Z,4.10
2022-12-29T21:53:38.027Z,5.15
2022-12-29T21:55:10.339Z,5.55
2022-12-29T21:56:45.487Z,3.85
2022-12-29T21:58:36.496Z,6.25
2022-12-29T22:00:30.039Z,4.80
2022-12-29T22:02:23.388Z,3.45
2022-12-29T22:04:14.826Z,4.75
2022-12-29T22:06:08.848Z,5.85
2022-12-29T22:08:00.073Z,3.85
2022-12-29T22:09:53.151Z,5.22
2022-12-29T22:11:43.996Z,2.88
2022-12-29T22:13:17.135Z,4.03
2022-12-29T22:14:50.394Z,4.72
2022-12-29T22:16:25.850Z,4.95
2022-12-29T22:18:00.761Z,5.15
2022-12-29T22:19:34.136Z,2.97
2022-12-29T22:21:09.451Z,3.60
2022-12-29T22:22:42.691Z,2.58
2022-12-29T22:24:16.125Z,4.63
2022-12-29T22:25:51.297Z,4.28
2022-12-29T22:27:24.604Z,5.43
2022-12-29T22:28:57.808Z,6.03
2022-12-29T22:30:31.285Z,6.45